Time;durP1;ratioP1;P1;durP2;ratioP2;P2;SDS_P1;SDS_P2;PMS_P1;PMS_P2;Temp;Humidity;BMP_temperature;BMP_pressure;BME280_temperature;BME280_humidity;BME280_pressure;Samples;Min_cycle;Max_cycle;Signal;HPM_P1;HPM_P2
2022/12/13 00:02:34;;;;;;;;;;;-2.40;99.90;;;;;;8372953;28;19948;-69
2022/12/13 00:06:36;;;;;;;;;;;-2.40;99.90;;;;;;8399639;28;20330;-69
2022/12/13 00:10:38;;;;;;;;;;;-2.40;99.90;;;;;;8388605;28;20361;-69
2022/12/13 00:14:39;;;;;;;;;;;-2.40;99.90;;;;;;8388233;28;20439;-69
2022/12/13 00:18:41;;;;;;;;;;;-2.50;99.90;;;;;;8385480;28;19924;-70
2022/12/13 00:22:43;;;;;;;;;;;-2.50;99.90;;;;;;8402867;28;19924;-69
2022/12/13 00:26:44;;;;;;;;;;;-2.50;99.90;;;;;;8387273;28;20303;-69
2022/12/13 00:30:46;;;;;;;;;;;-2.50;99.90;;;;;;8391778;28;20265;-69
2022/12/13 00:34:48;;;;;;;;;;;-2.50;99.90;;;;;;8401267;28;19970;-69
2022/12/13 00:38:59;;;;;;;;;;;-2.60;99.90;;;;;;8388562;28;20382;-69
2022/12/13 00:43:01;;;;;;;;;;;-2.60;99.90;;;;;;8391793;28;19924;-69
2022/12/13 00:47:03;;;;;;;;;;;-2.60;99.90;;;;;;8372827;28;19948;-69
2022/12/13 00:51:05;;;;;;;;;;;-2.60;99.90;;;;;;8380713;28;19951;-69
2022/12/13 00:55:07;;;;;;;;;;;-2.70;99.90;;;;;;8395759;28;20420;-69
2022/12/13 00:59:12;;;;;;;;;;;-2.70;99.90;;;;;;8402234;28;19988;-69
2022/12/13 01:03:19;;;;;;;;;;;-2.70;99.90;;;;;;8391439;28;19930;-69
2022/12/13 01:07:21;;;;;;;;;;;-2.80;99.90;;;;;;8369752;28;20299;-69
2022/12/13 01:11:23;;;;;;;;;;;-2.80;99.90;;;;;;8377907;28;20439;-69
2022/12/13 01:15:24;;;;;;;;;;;-2.80;99.90;;;;;;8390006;28;19932;-69
2022/12/13 01:29:34;;;;;;;;;;;-2.90;99.90;;;;;;8383034;28;19951;-69
2022/12/13 01:33:37;;;;;;;;;;;-3.00;99.90;;;;;;8399804;28;19968;-69
2022/12/13 01:37:39;;;;;;;;;;;-3.10;99.90;;;;;;8387977;28;19925;-69
2022/12/13 01:41:41;;;;;;;;;;;-3.10;99.90;;;;;;8390524;28;19924;-69
2022/12/13 01:45:42;;;;;;;;;;;-3.10;99.90;;;;;;8366309;28;19932;-69
2022/12/13 01:49:44;;;;;;;;;;;-3.10;99.90;;;;;;8371149;28;19970;-69
2022/12/13 01:53:48;;;;;;;;;;;-3.10;99.90;;;;;;8389021;28;20283;-69
2022/12/13 01:57:51;;;;;;;;;;;-3.10;99.90;;;;;;8371068;28;19971;-69
2022/12/13 02:01:53;;;;;;;;;;;-3.10;99.90;;;;;;8363205;28;19929;-69
2022/12/13 02:05:58;;;;;;;;;;;-3.10;99.90;;;;;;8386449;28;19924;-69
2022/12/13 02:10:02;;;;;;;;;;;-3.20;99.90;;;;;;8388638;28;19928;-69
2022/12/13 02:14:04;;;;;;;;;;;-3.20;99.90;;;;;;8392085;28;20576;-69
2022/12/13 02:18:18;;;;;;;;;;;-3.20;99.90;;;;;;8364593;28;19931;-69
2022/12/13 02:22:34;;;;;;;;;;;-3.30;99.90;;;;;;8375539;28;19925;-69
2022/12/13 02:26:54;;;;;;;;;;;-3.30;99.90;;;;;;8366632;28;19924;-69
2022/12/13 02:31:02;;;;;;;;;;;-3.30;99.90;;;;;;8377754;28;20055;-69
2022/12/13 02:35:08;;;;;;;;;;;-3.30;99.90;;;;;;8363045;28;19929;-68
2022/12/13 02:39:16;;;;;;;;;;;-3.30;99.90;;;;;;8366149;28;19932;-69
2022/12/13 02:43:36;;;;;;;;;;;-3.40;99.90;;;;;;8370738;28;19925;-69
2022/12/13 02:47:40;;;;;;;;;;;-3.40;99.90;;;;;;8389485;28;19932;-69
2022/12/13 02:51:42;;;;;;;;;;;-3.40;99.90;;;;;;8404685;28;19925;-69
2022/12/13 02:55:44;;;;;;;;;;;-3.50;99.90;;;;;;8390595;28;20355;-69
2022/12/13 02:59:45;;;;;;;;;;;-3.50;99.90;;;;;;8388869;28;19925;-69
2022/12/13 03:03:54;;;;;;;;;;;-3.50;99.90;;;;;;8370509;28;19940;-69
2022/12/13 03:08:00;;;;;;;;;;;-3.50;99.90;;;;;;8375199;28;20285;-68
2022/12/13 03:16:29;;;;;;;;;;;-3.50;99.90;;;;;;8384300;28;19960;-69
2022/12/13 03:20:31;;;;;;;;;;;-3.50;99.90;;;;;;8368701;28;19929;-69
2022/12/13 03:24:33;;;;;;;;;;;-3.60;99.90;;;;;;8398178;28;19929;-69
2022/12/13 03:28:35;;;;;;;;;;;-3.60;99.90;;;;;;8377437;28;19925;-69
2022/12/13 03:32:36;;;;;;;;;;;-3.60;99.90;;;;;;8382308;28;19931;-69
2022/12/13 03:36:38;;;;;;;;;;;-3.60;99.90;;;;;;8390698;28;19924;-69
2022/12/13 03:40:39;;;;;;;;;;;-3.60;99.90;;;;;;8389422;28;20372;-69
2022/12/13 03:44:41;;;;;;;;;;;-3.60;99.90;;;;;;8363107;28;20281;-69
2022/12/13 03:48:43;;;;;;;;;;;-3.60;99.90;;;;;;8395734;28;19925;-69
2022/12/13 03:52:46;;;;;;;;;;;-3.50;99.90;;;;;;8389471;28;19925;-69
2022/12/13 03:56:48;;;;;;;;;;;-3.50;99.90;;;;;;8395889;28;19925;-69
2022/12/13 04:00:49;;;;;;;;;;;-3.40;99.90;;;;;;8384993;28;19933;-69
2022/12/13 04:04:51;;;;;;;;;;;-3.40;99.90;;;;;;8377047;28;20375;-69
2022/12/13 04:08:52;;;;;;;;;;;-3.30;99.90;;;;;;8377726;28;19947;-69
2022/12/13 04:17:15;;;;;;;;;;;-3.40;99.90;;;;;;8398883;28;19924;-69
2022/12/13 04:21:16;;;;;;;;;;;-3.30;99.90;;;;;;8380303;28;19932;-69
2022/12/13 04:25:18;;;;;;;;;;;-3.30;99.90;;;;;;8392296;28;19925;-69
2022/12/13 04:29:20;;;;;;;;;;;-3.20;99.90;;;;;;8380034;28;19932;-69
2022/12/13 04:33:21;;;;;;;;;;;-3.20;99.90;;;;;;8396231;28;19975;-69
2022/12/13 04:37:23;;;;;;;;;;;-3.20;99.90;;;;;;8395782;28;19925;-68
2022/12/13 04:41:25;;;;;;;;;;;-3.20;99.90;;;;;;8386752;28;19925;-69
2022/12/13 04:45:26;;;;;;;;;;;-3.20;99.90;;;;;;8388663;28;19924;-69
2022/12/13 04:49:28;;;;;;;;;;;-3.20;99.90;;;;;;8383549;28;19924;-69
2022/12/13 04:53:30;;;;;;;;;;;-3.20;99.90;;;;;;8390429;28;19925;-68
2022/12/13 04:57:32;;;;;;;;;;;-3.10;99.90;;;;;;8375595;28;19928;-69
2022/12/13 05:01:34;;;;;;;;;;;-3.10;99.90;;;;;;8386017;28;19929;-69
2022/12/13 05:05:39;;;;;;;;;;;-3.10;99.90;;;;;;8375971;28;19925;-69
2022/12/13 05:09:41;;;;;;;;;;;-3.10;99.90;;;;;;8380963;28;19932;-69
2022/12/13 05:13:42;;;;;;;;;;;-3.10;99.90;;;;;;8401017;28;19935;-69
2022/12/13 05:17:44;;;;;;;;;;;-3.10;99.90;;;;;;8393182;28;19924;-69
2022/12/13 05:21:46;;;;;;;;;;;-3.10;99.90;;;;;;8392165;28;19924;-69
2022/12/13 05:25:51;;;;;;;;;;;-3.10;99.90;;;;;;8394719;28;19974;-69
2022/12/13 05:29:54;;;;;;;;;;;-3.00;99.90;;;;;;8394324;28;19929;-69
2022/12/13 05:34:04;;;;;;;;;;;-3.00;99.90;;;;;;8376871;28;20416;-69
2022/12/13 05:38:06;;;;;;;;;;;-3.00;99.90;;;;;;8393306;28;19924;-69
2022/12/13 05:42:08;;;;;;;;;;;-3.10;99.90;;;;;;8388063;28;19931;-69
2022/12/13 05:46:11;;;;;;;;;;;-3.10;99.90;;;;;;8392995;28;19928;-69
2022/12/13 05:50:13;;;;;;;;;;;-3.10;99.90;;;;;;8368626;28;19931;-69
2022/12/13 05:54:15;;;;;;;;;;;-3.10;99.90;;;;;;8387862;28;19936;-69
2022/12/13 05:58:18;;;;;;;;;;;-3.10;99.90;;;;;;8387832;28;20332;-69
2022/12/13 06:02:23;;;;;;;;;;;-3.10;99.90;;;;;;8383693;28;20452;-69
2022/12/13 06:06:25;;;;;;;;;;;-3.10;99.90;;;;;;8403736;28;19925;-69
2022/12/13 06:10:27;;;;;;;;;;;-3.10;99.90;;;;;;8390057;28;19931;-69
2022/12/13 06:14:35;;;;;;;;;;;-3.20;99.90;;;;;;8388767;28;19924;-69
2022/12/13 06:18:37;;;;;;;;;;;-3.20;99.90;;;;;;8377189;28;19931;-69
2022/12/13 06:22:39;;;;;;;;;;;-3.20;99.90;;;;;;8380237;28;19967;-69
2022/12/13 06:26:40;;;;;;;;;;;-3.20;99.90;;;;;;8391445;28;20392;-69
2022/12/13 06:30:42;;;;;;;;;;;-3.30;99.90;;;;;;8366340;28;19933;-69
2022/12/13 06:34:44;;;;;;;;;;;-3.30;99.90;;;;;;8382849;28;19932;-69
2022/12/13 06:38:45;;;;;;;;;;;-3.30;99.90;;;;;;8395048;28;19964;-69
2022/12/13 06:42:47;;;;;;;;;;;-3.30;99.90;;;;;;8386977;28;19924;-68
2022/12/13 06:46:49;;;;;;;;;;;-3.40;99.90;;;;;;8374778;28;20295;-69
2022/12/13 06:50:50;;;;;;;;;;;-3.30;99.90;;;;;;8393562;28;19924;-69
2022/12/13 06:54:52;;;;;;;;;;;-3.40;99.90;;;;;;8381711;28;19936;-69
2022/12/13 06:59:00;;;;;;;;;;;-3.40;99.90;;;;;;8364884;28;19925;-69
2022/12/13 07:03:02;;;;;;;;;;;-3.40;99.90;;;;;;8377944;28;19933;-69
2022/12/13 07:07:04;;;;;;;;;;;-3.50;99.90;;;;;;8384871;28;19932;-69
2022/12/13 07:11:06;;;;;;;;;;;-3.50;99.90;;;;;;8392277;28;19925;-69
2022/12/13 07:15:09;;;;;;;;;;;-3.50;99.90;;;;;;8372804;28;19932;-69
2022/12/13 07:19:11;;;;;;;;;;;-3.50;99.90;;;;;;8391942;28;19925;-69
2022/12/13 07:23:23;;;;;;;;;;;-3.60;99.90;;;;;;8395423;28;19974;-69
2022/12/13 07:27:25;;;;;;;;;;;-3.50;99.90;;;;;;8371893;28;19924;-69
2022/12/13 07:31:27;;;;;;;;;;;-3.60;99.90;;;;;;8392139;28;19980;-69
2022/12/13 07:35:29;;;;;;;;;;;-3.70;99.90;;;;;;8394028;28;19924;-69
2022/12/13 07:39:31;;;;;;;;;;;-3.70;99.90;;;;;;8389369;28;19987;-69
2022/12/13 07:43:32;;;;;;;;;;;-3.80;99.90;;;;;;8393636;28;20023;-69
2022/12/13 07:47:34;;;;;;;;;;;-3.80;99.90;;;;;;8377005;28;20295;-69
2022/12/13 07:51:36;;;;;;;;;;;-3.90;99.90;;;;;;8385942;28;19924;-69
2022/12/13 07:55:37;;;;;;;;;;;-3.90;99.90;;;;;;8394644;28;19928;-69
2022/12/13 07:59:39;;;;;;;;;;;-3.90;99.90;;;;;;8389096;28;20027;-69
2022/12/13 08:03:41;;;;;;;;;;;-3.90;99.90;;;;;;8374401;28;20287;-68
2022/12/13 08:07:42;;;;;;;;;;;-3.90;99.90;;;;;;8394152;28;20019;-69
2022/12/13 08:11:44;;;;;;;;;;;-3.90;99.90;;;;;;8392356;28;19924;-69
2022/12/13 08:15:45;;;;;;;;;;;-3.90;99.90;;;;;;8380862;28;19928;-69
2022/12/13 08:19:47;;;;;;;;;;;-3.90;99.90;;;;;;8394297;28;20280;-69
2022/12/13 08:23:49;;;;;;;;;;;-3.90;99.90;;;;;;8399531;28;20001;-69
2022/12/13 08:27:51;;;;;;;;;;;-3.90;99.90;;;;;;8399621;28;19924;-67
2022/12/13 08:31:52;;;;;;;;;;;-3.90;99.90;;;;;;8391744;28;19928;-68
2022/12/13 08:35:54;;;;;;;;;;;-3.80;99.90;;;;;;8399340;28;20358;-68
2022/12/13 08:39:56;;;;;;;;;;;-3.70;99.90;;;;;;8400427;28;19959;-68
2022/12/13 08:43:58;;;;;;;;;;;-3.60;99.90;;;;;;8392594;28;19931;-67
2022/12/13 08:48:00;;;;;;;;;;;-3.50;99.90;;;;;;8400307;28;19946;-68
2022/12/13 08:52:02;;;;;;;;;;;-3.40;99.90;;;;;;8385220;28;19924;-67
2022/12/13 08:56:06;;;;;;;;;;;-3.30;99.90;;;;;;8400308;28;19972;-68
2022/12/13 09:00:10;;;;;;;;;;;-3.10;99.90;;;;;;8368669;28;19932;-67
2022/12/13 09:04:11;;;;;;;;;;;-2.80;99.90;;;;;;8382430;28;20253;-68
2022/12/13 09:08:14;;;;;;;;;;;-2.50;99.90;;;;;;8398935;28;20367;-68
2022/12/13 09:12:25;;;;;;;;;;;-2.20;99.90;;;;;;8393762;28;20399;-68
2022/12/13 09:16:30;;;;;;;;;;;-2.00;99.90;;;;;;8384690;28;19932;-67
2022/12/13 09:20:36;;;;;;;;;;;-1.80;99.90;;;;;;8399247;28;19931;-68
2022/12/13 09:24:41;;;;;;;;;;;-1.60;99.90;;;;;;8383224;28;19928;-68
2022/12/13 09:28:43;;;;;;;;;;;-1.60;99.90;;;;;;8396287;28;19928;-68
2022/12/13 09:32:48;;;;;;;;;;;-1.40;99.90;;;;;;8365723;28;20360;-68
2022/12/13 09:36:50;;;;;;;;;;;-1.40;99.90;;;;;;8380860;28;19928;-68
2022/12/13 09:40:52;;;;;;;;;;;-1.40;99.90;;;;;;8365334;28;19975;-68
2022/12/13 09:45:04;;;;;;;;;;;-1.30;99.90;;;;;;8359382;28;19925;-67
2022/12/13 09:49:10;;;;;;;;;;;-1.30;99.90;;;;;;8335348;28;19932;-68
2022/12/13 09:53:15;;;;;;;;;;;-1.30;99.90;;;;;;8331739;28;19960;-68
2022/12/13 09:57:27;;;;;;;;;;;-1.20;99.90;;;;;;8333040;28;20353;-68
2022/12/13 10:01:33;;;;;;;;;;;-1.10;99.90;;;;;;8342276;28;19925;-68
2022/12/13 10:15:45;;;;;;;;;;;-1.00;99.90;;;;;;8346421;28;19944;-68
2022/12/13 10:19:50;;;;;;;;;;;-1.00;99.90;;;;;;8329671;28;20281;-68
2022/12/13 10:23:52;;;;;;;;;;;-0.90;99.90;;;;;;8330620;28;19976;-68
2022/12/13 10:28:18;;;;;;;;;;;-0.80;99.90;;;;;;8330452;28;20377;-68
2022/12/13 10:32:20;;;;;;;;;;;-0.70;99.90;;;;;;8358103;28;19967;-68
2022/12/13 10:36:32;;;;;;;;;;;-0.70;99.90;;;;;;8363271;28;20035;-68
2022/12/13 10:40:39;;;;;;;;;;;-0.70;99.90;;;;;;8364001;28;19936;-68
2022/12/13 10:44:41;;;;;;;;;;;-0.60;99.90;;;;;;8380112;28;19924;-68
2022/12/13 10:48:47;;;;;;;;;;;-0.30;99.90;;;;;;8364447;28;19932;-68
2022/12/13 10:52:49;;;;;;;;;;;0.00;99.90;;;;;;8366202;28;19979;-68
2022/12/13 10:56:54;;;;;;;;;;;0.60;99.90;;;;;;8397011;28;19930;-68
2022/12/13 11:01:07;;;;;;;;;;;1.00;99.90;;;;;;8363223;28;19932;-68
2022/12/13 11:05:29;;;;;;;;;;;1.30;99.90;;;;;;8382921;28;20011;-68
2022/12/13 11:09:32;;;;;;;;;;;1.60;99.90;;;;;;8390133;28;19948;-68
2022/12/13 11:13:49;;;;;;;;;;;1.90;99.90;;;;;;8364604;28;20364;-68
2022/12/13 11:17:54;;;;;;;;;;;2.30;99.90;;;;;;8363105;28;19924;-69
2022/12/13 11:37:16;;;;;;;;;;;1.60;99.90;;;;;;8361643;28;19920;-69
2022/12/13 11:41:23;;;;;;;;;;;1.50;99.90;;;;;;8393796;28;20391;-68
2022/12/13 11:45:45;;;;;;;;;;;1.50;99.90;;;;;;8367872;28;20292;-68
2022/12/13 11:49:48;;;;;;;;;;;1.60;99.90;;;;;;8361728;28;19932;-68
2022/12/13 11:53:53;;;;;;;;;;;1.60;99.90;;;;;;8363622;28;19925;-69
2022/12/13 11:57:55;;;;;;;;;;;1.60;99.90;;;;;;8370898;28;19932;-68
2022/12/13 12:02:17;;;;;;;;;;;1.60;99.90;;;;;;8399041;28;19924;-68
2022/12/13 12:06:24;;;;;;;;;;;1.60;99.90;;;;;;8398077;28;19931;-69
2022/12/13 12:10:29;;;;;;;;;;;1.70;99.90;;;;;;8417823;28;19931;-69
2022/12/13 12:14:34;;;;;;;;;;;1.60;99.90;;;;;;8400187;28;20349;-69
2022/12/13 12:18:36;;;;;;;;;;;1.70;99.90;;;;;;8389880;28;20011;-68
2022/12/13 12:22:41;;;;;;;;;;;1.60;99.90;;;;;;8384523;28;19959;-69
2022/12/13 12:26:57;;;;;;;;;;;1.50;99.90;;;;;;8366461;28;20289;-69
2022/12/13 12:31:17;;;;;;;;;;;1.50;99.90;;;;;;8386066;28;19959;-69
2022/12/13 12:35:37;;;;;;;;;;;1.40;99.90;;;;;;8348120;28;19925;-68
2022/12/13 12:39:49;;;;;;;;;;;1.50;99.90;;;;;;8383050;28;20023;-68
2022/12/13 12:44:04;;;;;;;;;;;1.90;99.90;;;;;;8366714;28;20352;-69
2022/12/13 12:48:31;;;;;;;;;;;2.40;99.90;;;;;;8367390;28;19925;-69
2022/12/13 12:52:53;;;;;;;;;;;3.10;99.90;;;;;;8365149;28;19931;-69
2022/12/13 12:56:59;;;;;;;;;;;3.60;99.90;;;;;;8365920;28;19928;-69
2022/12/13 13:01:19;;;;;;;;;;;3.90;99.90;;;;;;8382355;28;20027;-69
2022/12/13 13:05:25;;;;;;;;;;;4.60;99.90;;;;;;8388050;28;19993;-69
2022/12/13 13:09:27;;;;;;;;;;;5.10;99.90;;;;;;8396699;28;20394;-69
2022/12/13 13:13:35;;;;;;;;;;;5.10;99.90;;;;;;8399769;28;20498;-69
2022/12/13 13:17:39;;;;;;;;;;;4.90;99.90;;;;;;8365607;28;19925;-69
2022/12/13 13:21:42;;;;;;;;;;;4.60;99.90;;;;;;8365553;28;19931;-69
2022/12/13 13:25:51;;;;;;;;;;;4.20;99.90;;;;;;8366170;28;19931;-69
2022/12/13 13:30:18;;;;;;;;;;;3.80;99.90;;;;;;8383092;28;19925;-69
2022/12/13 13:34:27;;;;;;;;;;;3.30;99.90;;;;;;8365403;28;19928;-69
2022/12/13 13:43:32;;;;;;;;;;;2.60;99.90;;;;;;8373687;28;19958;-69
2022/12/13 13:47:38;;;;;;;;;;;2.30;99.90;;;;;;8379467;28;19988;-69
2022/12/13 13:51:56;;;;;;;;;;;2.10;99.90;;;;;;8398463;28;19928;-68
2022/12/13 13:56:37;;;;;;;;;;;1.90;99.90;;;;;;8380386;28;19935;-69
2022/12/13 14:00:53;;;;;;;;;;;1.70;99.90;;;;;;8364497;28;19925;-69
2022/12/13 14:05:14;;;;;;;;;;;1.60;99.90;;;;;;8381866;28;20284;-69
2022/12/13 14:09:51;;;;;;;;;;;1.50;99.90;;;;;;8370803;28;19976;-69
2022/12/13 14:14:08;;;;;;;;;;;1.40;99.90;;;;;;8330687;28;19935;-69
2022/12/13 14:18:41;;;;;;;;;;;1.30;99.90;;;;;;8392906;28;19978;-68
2022/12/13 14:22:42;;;;;;;;;;;1.20;99.90;;;;;;8395526;28;19932;-69
2022/12/13 14:26:53;;;;;;;;;;;1.10;99.90;;;;;;8369921;28;19956;-69
2022/12/13 14:30:55;;;;;;;;;;;1.00;99.90;;;;;;8371015;28;19964;-68
2022/12/13 14:34:58;;;;;;;;;;;1.00;99.90;;;;;;8367910;28;19934;-69
2022/12/13 14:39:02;;;;;;;;;;;0.90;99.90;;;;;;8385874;28;19960;-69
2022/12/13 14:43:03;;;;;;;;;;;0.80;99.90;;;;;;8390065;28;19932;-69
2022/12/13 14:47:06;;;;;;;;;;;0.80;99.90;;;;;;8393316;28;19939;-68
2022/12/13 14:51:28;;;;;;;;;;;0.70;99.90;;;;;;8364160;28;19929;-68
2022/12/13 14:55:30;;;;;;;;;;;0.60;99.90;;;;;;8372607;28;19933;-68
2022/12/13 14:59:32;;;;;;;;;;;0.50;99.90;;;;;;8381718;28;19924;-69
2022/12/13 15:03:34;;;;;;;;;;;0.50;99.90;;;;;;8380303;28;19925;-68
2022/12/13 15:07:37;;;;;;;;;;;0.40;99.90;;;;;;8386135;28;19933;-68
2022/12/13 15:11:38;;;;;;;;;;;0.30;99.90;;;;;;8376586;28;19931;-69
2022/12/13 15:15:40;;;;;;;;;;;0.20;99.90;;;;;;8385984;28;20276;-69
2022/12/13 15:19:42;;;;;;;;;;;0.10;99.90;;;;;;8367348;28;19935;-68
2022/12/13 15:23:50;;;;;;;;;;;0.10;99.90;;;;;;8375957;28;20012;-69
2022/12/13 15:27:52;;;;;;;;;;;0.00;99.90;;;;;;8392761;28;19925;-68
2022/12/13 15:31:56;;;;;;;;;;;0.00;99.90;;;;;;8369553;28;19932;-69
2022/12/13 15:36:14;;;;;;;;;;;-0.10;99.90;;;;;;8398753;28;19955;-69
2022/12/13 15:40:16;;;;;;;;;;;-0.10;99.90;;;;;;8402793;28;19929;-68
2022/12/13 15:44:25;;;;;;;;;;;-0.20;99.90;;;;;;8372777;28;19970;-69
2022/12/13 15:48:33;;;;;;;;;;;-0.20;99.90;;;;;;8403094;28;20286;-68
2022/12/13 15:52:35;;;;;;;;;;;-0.30;99.90;;;;;;8378236;28;19925;-69
2022/12/13 15:56:40;;;;;;;;;;;-0.30;99.90;;;;;;8395835;28;19924;-69
2022/12/13 16:00:47;;;;;;;;;;;-0.30;99.90;;;;;;8380435;28;20258;-69
2022/12/13 16:04:49;;;;;;;;;;;-0.40;99.90;;;;;;8363733;28;19925;-69
2022/12/13 16:08:52;;;;;;;;;;;-0.40;99.90;;;;;;8351176;28;19932;-69
2022/12/13 16:12:55;;;;;;;;;;;-0.40;99.90;;;;;;8378843;28;19947;-68
2022/12/13 16:17:00;;;;;;;;;;;-0.50;99.90;;;;;;8365173;28;19932;-69
2022/12/13 16:21:02;;;;;;;;;;;-0.40;99.90;;;;;;8362807;28;19933;-68
2022/12/13 16:25:03;;;;;;;;;;;-0.50;99.90;;;;;;8345064;28;19968;-69
2022/12/13 16:29:09;;;;;;;;;;;-0.50;99.90;;;;;;8368926;28;19925;-69
2022/12/13 16:33:10;;;;;;;;;;;-0.60;99.90;;;;;;8365491;28;19944;-69
2022/12/13 16:37:25;;;;;;;;;;;-0.60;99.90;;;;;;8363170;28;19928;-69
2022/12/13 16:41:28;;;;;;;;;;;-0.60;99.90;;;;;;8361900;28;19925;-68
2022/12/13 16:45:34;;;;;;;;;;;-0.70;99.90;;;;;;8346116;28;19976;-68
2022/12/13 16:49:43;;;;;;;;;;;-0.80;99.90;;;;;;8359968;28;19932;-68
2022/12/13 16:53:45;;;;;;;;;;;-0.80;99.90;;;;;;8358837;28;20592;-68
2022/12/13 16:57:56;;;;;;;;;;;-0.80;99.90;;;;;;8359179;28;20400;-68
2022/12/13 17:01:58;;;;;;;;;;;-0.80;99.90;;;;;;8343330;28;20284;-68
2022/12/13 17:06:00;;;;;;;;;;;-0.80;99.90;;;;;;8358982;28;19929;-68
2022/12/13 17:10:02;;;;;;;;;;;-0.90;99.90;;;;;;8341972;28;19964;-68
2022/12/13 17:14:04;;;;;;;;;;;-0.80;99.90;;;;;;8360320;28;19924;-69
2022/12/13 17:18:06;;;;;;;;;;;-0.90;99.90;;;;;;8361145;28;19964;-69
2022/12/13 17:22:08;;;;;;;;;;;-0.90;99.90;;;;;;8358729;28;19932;-68
2022/12/13 17:26:10;;;;;;;;;;;-0.90;99.90;;;;;;8361410;28;19925;-69
2022/12/13 17:30:14;;;;;;;;;;;-0.90;99.90;;;;;;8361896;28;19940;-68
2022/12/13 17:34:15;;;;;;;;;;;-0.90;99.90;;;;;;8359447;28;19933;-68
2022/12/13 17:38:17;;;;;;;;;;;-0.90;99.90;;;;;;8353763;28;19932;-68
2022/12/13 17:42:19;;;;;;;;;;;-0.80;99.90;;;;;;8360103;28;20346;-68
2022/12/13 17:46:20;;;;;;;;;;;-0.80;99.90;;;;;;8357795;28;20023;-68
2022/12/13 17:50:22;;;;;;;;;;;-0.80;99.90;;;;;;8361220;28;20002;-68
2022/12/13 17:54:24;;;;;;;;;;;-0.80;99.90;;;;;;8366241;28;19939;-68
2022/12/13 17:58:26;;;;;;;;;;;-0.80;99.90;;;;;;8353258;28;19924;-68
2022/12/13 18:02:28;;;;;;;;;;;-0.80;99.90;;;;;;8347701;28;19935;-68
2022/12/13 18:06:30;;;;;;;;;;;-0.90;99.90;;;;;;8343384;28;20388;-68
2022/12/13 18:10:32;;;;;;;;;;;-0.90;99.90;;;;;;8357329;28;19925;-68
2022/12/13 18:14:35;;;;;;;;;;;-0.90;99.90;;;;;;8353102;28;20019;-69
2022/12/13 18:18:37;;;;;;;;;;;-0.90;99.90;;;;;;8362780;28;20011;-68
2022/12/13 18:22:38;;;;;;;;;;;-1.00;99.90;;;;;;8358053;28;19931;-68
2022/12/13 18:26:42;;;;;;;;;;;-1.00;99.90;;;;;;8355931;28;19931;-69
2022/12/13 18:30:44;;;;;;;;;;;-1.00;99.90;;;;;;8355495;28;20292;-68
2022/12/13 18:34:46;;;;;;;;;;;-1.00;99.90;;;;;;8357053;28;19963;-68
2022/12/13 18:38:47;;;;;;;;;;;-1.00;99.90;;;;;;8355860;28;20360;-68
2022/12/13 18:42:50;;;;;;;;;;;-1.00;99.90;;;;;;8357944;28;19929;-68
2022/12/13 18:46:51;;;;;;;;;;;-1.10;99.90;;;;;;8359359;28;19972;-68
2022/12/13 18:50:56;;;;;;;;;;;-1.10;99.90;;;;;;8339089;28;19932;-68
2022/12/13 18:54:57;;;;;;;;;;;-1.10;99.90;;;;;;8340780;28;19951;-69
2022/12/13 18:58:59;;;;;;;;;;;-1.10;99.90;;;;;;8358458;28;19925;-69
2022/12/13 19:03:01;;;;;;;;;;;-1.10;99.90;;;;;;8356550;28;19934;-68
2022/12/13 19:07:03;;;;;;;;;;;-1.10;99.90;;;;;;8354028;28;19947;-69
2022/12/13 19:11:04;;;;;;;;;;;-1.10;99.90;;;;;;8354326;28;19925;-69
2022/12/13 19:15:06;;;;;;;;;;;-1.10;99.90;;;;;;8357355;28;19939;-68
2022/12/13 19:19:08;;;;;;;;;;;-1.10;99.90;;;;;;8338913;28;19971;-69
2022/12/13 19:23:09;;;;;;;;;;;-1.20;99.90;;;;;;8338368;28;19929;-69
2022/12/13 19:27:11;;;;;;;;;;;-1.20;99.90;;;;;;8357806;28;19972;-68
2022/12/13 19:31:14;;;;;;;;;;;-1.20;99.90;;;;;;8357161;28;19937;-68
2022/12/13 19:35:15;;;;;;;;;;;-1.20;99.90;;;;;;8351873;28;19929;-68
2022/12/13 19:39:17;;;;;;;;;;;-1.20;99.90;;;;;;8356250;28;19932;-69
2022/12/13 19:43:20;;;;;;;;;;;-1.20;99.90;;;;;;8339205;28;19924;-68
2022/12/13 19:47:21;;;;;;;;;;;-1.20;99.90;;;;;;8353506;28;19931;-68
2022/12/13 19:51:23;;;;;;;;;;;-1.30;99.90;;;;;;8355017;28;19929;-68
2022/12/13 19:55:24;;;;;;;;;;;-1.30;99.90;;;;;;8353566;28;20276;-68
2022/12/13 19:59:26;;;;;;;;;;;-1.40;99.90;;;;;;8354648;28;19929;-68
2022/12/13 20:03:32;;;;;;;;;;;-1.40;99.90;;;;;;8358585;28;20035;-68
2022/12/13 20:07:34;;;;;;;;;;;-1.40;99.90;;;;;;8353699;28;20017;-68
2022/12/13 20:11:35;;;;;;;;;;;-1.40;99.90;;;;;;8354872;28;19933;-68
2022/12/13 20:15:37;;;;;;;;;;;-1.40;99.90;;;;;;8355546;28;19932;-68
2022/12/13 20:19:39;;;;;;;;;;;-1.50;99.90;;;;;;8355855;28;19979;-68
2022/12/13 20:23:41;;;;;;;;;;;-1.40;99.90;;;;;;8359621;28;19931;-68
2022/12/13 20:27:49;;;;;;;;;;;-1.50;99.90;;;;;;8356981;28;19925;-68
2022/12/13 20:31:52;;;;;;;;;;;-1.50;99.90;;;;;;8358184;28;19928;-69
2022/12/13 20:35:54;;;;;;;;;;;-1.60;99.90;;;;;;8373043;28;19932;-68
2022/12/13 20:40:16;;;;;;;;;;;-1.60;99.90;;;;;;8361588;28;20367;-68
2022/12/13 20:44:22;;;;;;;;;;;-1.50;99.90;;;;;;8361334;28;20288;-68
2022/12/13 20:48:23;;;;;;;;;;;-1.50;99.90;;;;;;8349034;28;19939;-68
2022/12/13 20:52:25;;;;;;;;;;;-1.40;99.90;;;;;;8361403;28;19928;-68
2022/12/13 20:56:28;;;;;;;;;;;-1.30;99.90;;;;;;8362814;28;19933;-68
2022/12/13 21:00:29;;;;;;;;;;;-1.30;99.90;;;;;;8363457;28;20260;-69
2022/12/13 21:04:32;;;;;;;;;;;-1.30;99.90;;;;;;8358351;28;20299;-68
2022/12/13 21:12:54;;;;;;;;;;;-1.30;99.90;;;;;;8360941;28;19932;-68
2022/12/13 21:16:57;;;;;;;;;;;-1.20;99.90;;;;;;8359932;28;19939;-68
2022/12/13 21:20:58;;;;;;;;;;;-1.20;99.90;;;;;;8360146;28;19936;-69
2022/12/13 21:25:00;;;;;;;;;;;-1.20;99.90;;;;;;8360649;28;19931;-68
2022/12/13 21:29:04;;;;;;;;;;;-1.20;99.90;;;;;;8370986;28;20007;-68
2022/12/13 21:33:06;;;;;;;;;;;-1.10;99.90;;;;;;8360268;28;19925;-69
2022/12/13 21:37:07;;;;;;;;;;;-1.10;99.90;;;;;;8357951;28;20334;-68
2022/12/13 21:41:09;;;;;;;;;;;-1.10;99.90;;;;;;8360660;28;19975;-68
2022/12/13 21:45:11;;;;;;;;;;;-1.10;99.90;;;;;;8359822;28;20359;-68
2022/12/13 21:49:15;;;;;;;;;;;-1.20;99.90;;;;;;8362600;28;20198;-68
2022/12/13 21:53:16;;;;;;;;;;;-1.20;99.90;;;;;;8359648;28;20066;-68
2022/12/13 22:06:09;;;;;;;;;;;-1.30;99.90;;;;;;8382035;28;20398;-68
2022/12/13 22:10:11;;;;;;;;;;;-1.30;99.90;;;;;;8387821;28;19964;-68
2022/12/13 22:14:13;;;;;;;;;;;-1.30;99.90;;;;;;8383405;28;20477;-68
2022/12/13 22:18:14;;;;;;;;;;;-1.20;99.90;;;;;;8369363;28;19951;-68
2022/12/13 22:22:17;;;;;;;;;;;-1.20;99.90;;;;;;8387938;28;19963;-68
2022/12/13 22:26:19;;;;;;;;;;;-1.20;99.90;;;;;;8388159;28;19931;-69
2022/12/13 22:30:20;;;;;;;;;;;-1.20;99.90;;;;;;8378493;28;19979;-69
2022/12/13 22:34:22;;;;;;;;;;;-1.20;99.90;;;;;;8374273;28;20300;-69
2022/12/13 22:38:23;;;;;;;;;;;-1.20;99.90;;;;;;8361400;28;19928;-69
2022/12/13 22:42:26;;;;;;;;;;;-1.20;99.90;;;;;;8364208;28;19970;-68
2022/12/13 22:46:27;;;;;;;;;;;-1.10;99.90;;;;;;8393438;28;19928;-68
2022/12/13 22:50:29;;;;;;;;;;;-1.10;99.90;;;;;;8373099;28;19975;-68
2022/12/13 22:54:31;;;;;;;;;;;-1.10;99.90;;;;;;8394183;28;20003;-68
2022/12/13 22:58:33;;;;;;;;;;;-1.10;99.90;;;;;;8371381;28;20368;-68
2022/12/13 23:02:35;;;;;;;;;;;-1.10;99.90;;;;;;8381547;28;19931;-68
2022/12/13 23:06:37;;;;;;;;;;;-1.10;99.90;;;;;;8381098;28;19924;-68
2022/12/13 23:14:59;;;;;;;;;;;-1.10;99.90;;;;;;8389014;28;19924;-68
2022/12/13 23:19:02;;;;;;;;;;;-1.10;99.90;;;;;;8377069;28;20388;-68
2022/12/13 23:23:24;;;;;;;;;;;-1.10;99.90;;;;;;8382273;28;20422;-68
2022/12/13 23:27:25;;;;;;;;;;;-1.00;99.90;;;;;;8391019;28;19946;-68
2022/12/13 23:31:28;;;;;;;;;;;-1.00;99.90;;;;;;8376067;28;19972;-68
2022/12/13 23:35:30;;;;;;;;;;;-1.00;99.90;;;;;;8387293;28;19931;-68
2022/12/13 23:39:32;;;;;;;;;;;-1.00;99.90;;;;;;8378533;28;19979;-68
2022/12/13 23:43:34;;;;;;;;;;;-1.00;99.90;;;;;;8386347;28;20395;-68
2022/12/13 23:47:35;;;;;;;;;;;-0.90;99.90;;;;;;8385252;28;19955;-68
2022/12/13 23:51:37;;;;;;;;;;;-0.90;99.90;;;;;;8365553;28;20284;-68
2022/12/13 23:55:39;;;;;;;;;;;-0.90;99.90;;;;;;8400391;28;19925;-68
2022/12/13 23:59:41;;;;;;;;;;;-0.90;99.90;;;;;;8369176;28;19931;-69
